Latest Weather Observations for Point Wilson

IDV60801

Issued at 7:03 am EDT Thursday 8 December 2016 (issued every 30 minutes, with the page automatically refreshed every 10 minutes)

About weather observations | Map of weather stations | Latest weather observations for VIC | Other Formats
Station Details ID: 087166 Name: POINT WILSON Lat: -38.10 Lon: 144.54 Height: 18.0 m
Data from the previous 72 hours. | See also: Recent months for locations in Victoria
Date/Time
EDT
Temp
°C
App
Temp
°C
Dew
Point
°C
Rel
Hum
%
Delta-T
°C
Wind Press
QNH
hPa
Press
MSL
hPa
Rain since
9am
mm
Dir  Spd
km/h
Gust
km/h
Spd
kts
Gust
kts
08/07:00am - - - - - N 44 56 24 30 - - -
08/06:30am - - - - - N 46 59 25 32 - - -
08/06:02am - - - - - N 54 74 29 40 - - -
08/06:00am - - - - - N 54 65 29 35 - - -
08/05:30am - - - - - N 56 70 30 38 - - -
08/05:00am - - - - - N 41 57 22 31 - - -
08/04:57am - - - - - N 37 50 20 27 - - -
08/04:30am - - - - - N 20 32 11 17 - - -
08/04:00am - - - - - N 9 13 5 7 - - -
08/03:30am - - - - - N 19 22 10 12 - - -
08/03:00am - - - - - NNE 24 28 13 15 - - -
08/02:30am - - - - - NNE 24 28 13 15 - - -
08/02:00am - - - - - NNE 26 30 14 16 - - -
08/01:30am - - - - - NE 20 22 11 12 - - -
08/01:00am - - - - - NE 20 24 11 13 - - -
08/12:30am - - - - - NE 20 24 11 13 - - -
08/12:00am - - - - - NNE 15 17 8 9 - - -
 
Date/Time
EDT
Temp
°C
App
Temp
°C
Dew
Point
°C
Rel
Hum
%
Delta-T
°C
Wind Press
QNH
hPa
Press
MSL
hPa
Rain since
9am
mm
Dir  Spd
km/h
Gust
km/h
Spd
kts
Gust
kts
07/11:30pm - - - - - NE 24 28 13 15 - - -
07/11:00pm - - - - - - - - - - - - -
07/10:30pm - - - - - E 26 30 14 16 - - -
07/10:00pm - - - - - E 28 33 15 18 - - -
07/09:30pm - - - - - E 30 35 16 19 - - -
07/09:00pm - - - - - E 32 35 17 19 - - -
07/08:30pm - - - - - ESE 30 32 16 17 - - -
07/08:00pm - - - - - E 26 32 14 17 - - -
07/07:30pm - - - - - ESE 24 32 13 17 - - -
07/07:00pm - - - - - ESE 28 32 15 17 - - -
07/06:30pm - - - - - ESE 24 28 13 15 - - -
07/06:00pm - - - - - ESE 20 24 11 13 - - -
07/05:30pm - - - - - ESE 22 26 12 14 - - -
07/05:00pm - - - - - ESE 19 22 10 12 - - -
07/04:30pm - - - - - E 19 22 10 12 - - -
07/04:00pm - - - - - E 20 22 11 12 - - -
07/03:30pm - - - - - E 22 24 12 13 - - -
07/03:00pm - - - - - E 20 24 11 13 - - -
07/02:30pm - - - - - E 24 26 13 14 - - -
07/02:00pm - - - - - E 24 28 13 15 - - -
07/01:30pm - - - - - E 20 24 11 13 - - -
07/01:00pm - - - - - E 22 24 12 13 - - -
07/12:30pm - - - - - E 19 22 10 12 - - -
07/12:00pm - - - - - E 19 20 10 11 - - -
07/11:30am - - - - - E 19 20 10 11 - - -
07/11:00am - - - - - E 15 19 8 10 - - -
07/10:30am - - - - - NE 17 19 9 10 - - -
07/10:00am - - - - - NE 15 20 8 11 - - -
07/09:30am - - - - - NNE 17 20 9 11 - - -
07/09:00am - - - - - NNE 13 17 7 9 - - -
07/08:30am - - - - - CALM 0 0 0 0 - - -
07/08:00am - - - - - NW 2 7 1 4 - - -
07/07:30am - - - - - WNW 9 11 5 6 - - -
07/07:00am - - - - - WNW 9 11 5 6 - - -
07/06:30am - - - - - WNW 9 13 5 7 - - -
07/06:00am - - - - - WNW 11 15 6 8 - - -
07/05:30am - - - - - WNW 13 15 7 8 - - -
07/05:00am - - - - - W 13 15 7 8 - - -
07/04:30am - - - - - WNW 15 17 8 9 - - -
07/04:00am - - - - - WNW 11 15 6 8 - - -
07/03:30am - - - - - NW 9 11 5 6 - - -
07/03:00am - - - - - NW 7 15 4 8 - - -
07/02:30am - - - - - CALM 0 0 0 0 - - -
07/02:00am - - - - - CALM 0 0 0 0 - - -
07/01:30am - - - - - CALM 0 0 0 0 - - -
07/01:00am - - - - - ESE 7 9 4 5 - - -
07/12:30am - - - - - ESE 7 11 4 6 - - -
07/12:00am - - - - - SE 9 13 5 7 - - -
 
Date/Time
EDT
Temp
°C
App
Temp
°C
Dew
Point
°C
Rel
Hum
%
Delta-T
°C
Wind Press
QNH
hPa
Press
MSL
hPa
Rain since
9am
mm
Dir  Spd
km/h
Gust
km/h
Spd
kts
Gust
kts
06/11:30pm - - - - - SE 9 11 5 6 - - -
06/11:00pm - - - - - SSE 15 17 8 9 - - -
06/10:30pm - - - - - S 15 19 8 10 - - -
06/10:00pm - - - - - S 17 19 9 10 - - -
06/09:30pm - - - - - S 20 24 11 13 - - -
06/09:00pm - - - - - S 20 24 11 13 - - -
06/08:30pm - - - - - S 22 28 12 15 - - -
06/08:00pm - - - - - S 26 32 14 17 - - -
06/07:30pm - - - - - S 28 32 15 17 - - -
06/07:00pm - - - - - S 28 32 15 17 - - -
06/06:30pm - - - - - S 26 35 14 19 - - -
06/06:00pm - - - - - S 28 32 15 17 - - -
06/05:30pm - - - - - S 26 32 14 17 - - -
06/05:00pm - - - - - S 26 33 14 18 - - -
06/04:30pm - - - - - S 26 32 14 17 - - -
06/04:00pm - - - - - SSW 22 28 12 15 - - -
06/03:30pm - - - - - SSW 22 28 12 15 - - -
06/03:00pm - - - - - SSW 26 30 14 16 - - -
06/02:30pm - - - - - S 19 24 10 13 - - -
06/02:00pm - - - - - WSW 7 13 4 7 - - -
06/01:30pm - - - - - SW 11 17 6 9 - - -
06/01:00pm - - - - - WSW 13 17 7 9 - - -
06/12:30pm - - - - - SW 9 13 5 7 - - -
06/12:00pm - - - - - WSW 9 13 5 7 - - -
06/11:30am - - - - - WSW 11 15 6 8 - - -
06/11:00am - - - - - WSW 7 11 4 6 - - -
06/10:30am - - - - - SW 7 9 4 5 - - -
06/10:00am - - - - - SW 6 11 3 6 - - -
06/09:30am - - - - - SW 15 20 8 11 - - -
06/09:00am - - - - - SW 13 17 7 9 - - -
06/08:30am - - - - - SSW 13 17 7 9 - - -
06/08:00am - - - - - SW 20 24 11 13 - - -
06/07:30am - - - - - SSW 17 19 9 10 - - -
06/07:00am - - - - - SSW 15 19 8 10 - - -
06/06:30am - - - - - SSW 19 20 10 11 - - -
06/06:00am - - - - - SSW 19 22 10 12 - - -
06/05:30am - - - - - SSW 15 19 8 10 - - -
06/05:00am - - - - - SW 11 15 6 8 - - -
06/04:30am - - - - - S 9 13 5 7 - - -
06/04:00am - - - - - SSE 13 17 7 9 - - -
06/03:30am - - - - - SE 13 15 7 8 - - -
06/03:00am - - - - - SSE 15 19 8 10 - - -
06/02:30am - - - - - SSE 13 17 7 9 - - -
06/02:00am - - - - - SSE 15 19 8 10 - - -
06/01:30am - - - - - S 17 19 9 10 - - -
06/01:00am - - - - - SSW 20 24 11 13 - - -
06/12:30am - - - - - S 19 22 10 12 - - -
06/12:00am - - - - - SSE 17 20 9 11 - - -
 
Date/Time
EDT
Temp
°C
App
Temp
°C
Dew
Point
°C
Rel
Hum
%
Delta-T
°C
Wind Press
QNH
hPa
Press
MSL
hPa
Rain since
9am
mm
Dir  Spd
km/h
Gust
km/h
Spd
kts
Gust
kts
05/11:30pm - - - - - SE 15 19 8 10 - - -
05/11:00pm - - - - - ESE 15 17 8 9 - - -
05/10:30pm - - - - - S 20 24 11 13 - - -
05/10:00pm - - - - - S 22 28 12 15 - - -
05/09:30pm - - - - - S 24 30 13 16 - - -
05/09:00pm - - - - - S 28 33 15 18 - - -
05/08:30pm - - - - - S 30 33 16 18 - - -
05/08:00pm - - - - - S 26 32 14 17 - - -
05/07:30pm - - - - - S 24 30 13 16 - - -
05/07:00pm - - - - - S 28 33 15 18 - - -
05/06:30pm - - - - - S 28 32 15 17 - - -
05/06:00pm - - - - - S 32 35 17 19 - - -
05/05:30pm - - - - - S 33 39 18 21 - - -
05/05:00pm - - - - - S 33 39 18 21 - - -
05/04:30pm - - - - - S 32 37 17 20 - - -
05/04:00pm - - - - - S 32 35 17 19 - - -
05/03:30pm - - - - - S 24 30 13 16 - - -
05/03:00pm - - - - - S 24 30 13 16 - - -
05/02:30pm - - - - - S 22 28 12 15 - - -
05/02:00pm - - - - - S 17 22 9 12 - - -
05/01:30pm - - - - - S 19 20 10 11 - - -
05/01:00pm - - - - - S 15 20 8 11 - - -
05/12:30pm - - - - - S 15 19 8 10 - - -
05/12:00pm - - - - - WSW 15 20 8 11 - - -
05/11:30am - - - - - WSW 19 24 10 13 - - -
05/11:00am - - - - - WSW 19 24 10 13 - - -
05/10:30am - - - - - WSW 20 26 11 14 - - -
05/10:00am - - - - - WSW 24 28 13 15 - - -
05/09:30am - - - - - WSW 24 30 13 16 - - -
05/09:00am - - - - - WSW 30 39 16 21 - - -
05/08:30am - - - - - WSW 32 39 17 21 - - -
05/08:00am - - - - - WSW 30 39 16 21 - - -
05/07:30am - - - - - WSW 33 39 18 21 - - -

Other Formats:

Comma delimited format used in spreadsheet applications
http://www.bom.gov.au/fwo/IDV60801/IDV60801.94847.axf

JavaScript Object Notation format (JSON) in row-major order
http://www.bom.gov.au/fwo/IDV60801/IDV60801.94847.json